Time;durP1;ratioP1;P1;durP2;ratioP2;P2;SDS_P1;SDS_P2;PMS_P1;PMS_P2;Temp;Humidity;BMP_temperature;BMP_pressure;BME280_temperature;BME280_humidity;BME280_pressure;Samples;Min_cycle;Max_cycle;Signal;HPM_P1;HPM_P2
2021/07/13 00:00:29;;;;;;;9.07;8.18;;;20.60;69.60;;;20.55;54.23;94394.44;5034588;28;20325;-80
2021/07/13 00:02:59;;;;;;;8.68;7.88;;;20.50;70.60;;;20.54;53.79;94390.19;5051300;28;20219;-80
2021/07/13 00:05:26;;;;;;;8.82;8.00;;;20.60;69.80;;;20.56;54.55;94389.94;5018021;28;20688;-80
2021/07/13 00:07:54;;;;;;;9.13;8.23;;;20.50;70.00;;;20.53;54.09;94393.94;5033577;28;20743;-80
2021/07/13 00:10:25;;;;;;;9.60;8.70;;;20.50;69.90;;;20.54;54.42;94390.19;5034807;28;20300;-80
2021/07/13 00:12:55;;;;;;;9.20;8.32;;;20.50;70.40;;;20.53;54.77;94395.78;5047635;28;20215;-79
2021/07/13 00:15:26;;;;;;;10.65;9.55;;;20.50;70.60;;;20.53;55.23;94385.94;5014352;28;20274;-80
2021/07/13 00:17:54;;;;;;;10.38;8.60;;;20.50;70.80;;;20.52;54.61;94383.53;5015030;28;20662;-80
2021/07/13 00:20:22;;;;;;;8.90;8.00;;;20.50;70.50;;;20.50;54.41;94386.47;5026707;28;20224;-80
2021/07/13 00:22:49;;;;;;;8.52;7.72;;;20.50;70.40;;;20.48;54.93;94383.25;5050274;28;20334;-79
2021/07/13 00:25:17;;;;;;;10.45;9.02;;;20.50;70.40;;;20.46;54.70;94385.41;5051125;28;20302;-80
2021/07/13 00:27:44;;;;;;;12.23;8.75;;;20.40;70.60;;;20.44;54.97;94374.22;5034059;28;20242;-79
2021/07/13 00:30:16;;;;;;;9.85;8.95;;;20.40;70.50;;;20.42;54.69;94379.81;5034350;28;20230;-80
2021/07/13 00:32:43;;;;;;;9.07;8.18;;;20.40;70.90;;;20.41;54.80;94380.06;5017947;28;20596;-80
2021/07/13 00:35:10;;;;;;;10.48;9.48;;;20.40;70.50;;;20.38;55.32;94370.75;5034194;28;20218;-79
2021/07/13 00:37:37;;;;;;;10.00;9.00;;;20.40;70.80;;;20.37;55.47;94363.03;5034305;28;20692;-80
2021/07/13 00:40:09;;;;;;;10.75;9.70;;;20.40;70.90;;;20.35;55.66;94371.28;5013447;28;20227;-79
2021/07/13 00:42:37;;;;;;;10.07;9.05;;;20.40;71.70;;;20.30;55.69;94364.09;4998369;28;20573;-80
2021/07/13 00:45:06;;;;;;;10.40;9.32;;;20.40;71.30;;;20.31;56.12;94356.88;4998135;28;20315;-80
2021/07/13 00:47:33;;;;;;;11.35;10.25;;;20.30;71.40;;;20.29;55.85;94364.38;5015789;28;20219;-79
2021/07/13 00:50:02;;;;;;;11.23;10.13;;;20.30;71.30;;;20.28;55.75;94360.09;5033799;28;20702;-80
2021/07/13 00:52:29;;;;;;;11.48;10.27;;;20.30;71.50;;;20.26;56.11;94347.06;5030455;28;20219;-79
2021/07/13 00:54:57;;;;;;;11.60;10.40;;;20.30;71.60;;;20.26;56.28;94347.06;5006039;28;20227;-80
2021/07/13 00:57:24;;;;;;;11.05;9.90;;;20.30;71.80;;;20.26;55.95;94354.22;5050745;28;20294;-80
2021/07/13 00:59:51;;;;;;;10.63;9.63;;;20.30;71.90;;;20.26;56.28;94357.72;5050149;28;20226;-80
2021/07/13 01:02:19;;;;;;;10.73;9.70;;;20.30;72.10;;;20.27;56.30;94363.81;5017166;28;20229;-80
2021/07/13 01:04:51;;;;;;;11.07;9.98;;;20.30;72.10;;;20.27;56.92;94371.81;5016377;28;20231;-80
2021/07/13 01:07:55;;;;;;;13.10;10.60;;;20.30;72.50;;;20.24;56.49;94362.50;5033953;28;20222;-80
2021/07/13 01:10:32;;;;;;;11.93;9.50;;;20.30;72.80;;;20.22;56.48;94356.63;5033593;28;20223;-80
2021/07/13 01:13:17;;;;;;;13.13;9.90;;;20.20;72.00;;;20.21;56.23;94357.69;5016906;28;20286;-78
2021/07/13 01:15:55;;;;;;;11.15;9.93;;;20.20;72.10;;;20.21;56.82;94349.69;5033534;28;20257;-80
2021/07/13 01:18:31;;;;;;;10.38;9.32;;;20.20;72.90;;;20.21;56.97;94349.69;5018783;28;20233;-79
2021/07/13 01:21:03;;;;;;;11.00;9.90;;;20.20;72.60;;;20.20;56.49;94348.13;5050349;28;20249;-79
2021/07/13 01:24:11;;;;;;;12.27;10.98;;;20.20;72.20;;;20.15;56.72;94346.25;5033269;28;20299;-79
2021/07/13 01:27:12;;;;;;;11.95;10.43;;;20.20;72.80;;;20.13;56.73;94342.25;5033360;28;20207;-79
2021/07/13 01:29:42;;;;;;;12.27;10.98;;;20.20;73.10;;;20.11;57.20;94329.19;5029443;28;20262;-80
2021/07/13 01:32:16;;;;;;;12.48;11.18;;;20.20;73.00;;;20.12;57.71;94330.81;4982787;28;20244;-79
2021/07/13 01:34:54;;;;;;;11.68;10.48;;;20.10;74.10;;;20.11;57.08;94331.84;5033063;28;20238;-79
2021/07/13 01:37:22;;;;;;;12.88;11.02;;;20.10;73.60;;;20.12;57.08;94328.13;5033631;28;20285;-80
2021/07/13 01:39:53;;;;;;;12.20;10.90;;;20.10;72.90;;;20.12;57.14;94314.03;5017132;28;20231;-80
2021/07/13 01:42:21;;;;;;;13.80;11.48;;;20.10;73.50;;;20.11;57.29;94321.22;5029594;28;20220;-80
2021/07/13 01:44:50;;;;;;;12.55;10.52;;;20.10;73.10;;;20.12;57.54;94320.16;4997273;28;20224;-80
2021/07/13 01:47:18;;;;;;;11.75;10.60;;;20.10;73.20;;;20.12;57.43;94322.81;5013068;28;20251;-80
2021/07/13 01:49:46;;;;;;;12.25;11.05;;;20.10;73.40;;;20.10;57.94;94310.84;5027992;28;20224;-80
2021/07/13 01:52:14;;;;;;;12.57;11.27;;;20.10;73.40;;;20.08;57.92;94316.44;5009148;28;20219;-80
2021/07/13 01:54:43;;;;;;;11.95;10.65;;;20.10;73.50;;;20.07;57.75;94320.16;5033479;28;20242;-79
2021/07/13 01:57:10;;;;;;;12.63;11.05;;;20.10;73.60;;;20.08;57.82;94318.28;5013352;28;20252;-79
2021/07/13 01:59:40;;;;;;;13.15;11.63;;;20.10;73.50;;;20.08;58.42;94321.75;5021801;28;20274;-80
2021/07/13 02:02:10;;;;;;;13.38;11.90;;;20.10;73.90;;;20.07;58.11;94320.16;5017710;28;20581;-80
2021/07/13 02:04:38;;;;;;;12.73;11.20;;;20.10;74.90;;;20.06;58.04;94307.13;5020251;28;20223;-80
2021/07/13 02:07:12;;;;;;;13.18;11.65;;;20.00;73.60;;;20.04;58.02;94304.69;5020879;28;20274;-80
2021/07/13 02:09:42;;;;;;;13.27;11.88;;;20.10;73.90;;;20.03;57.89;94304.97;5010759;28;20694;-80
2021/07/13 02:12:10;;;;;;;13.50;11.88;;;20.00;74.00;;;20.02;58.14;94298.06;5016801;28;20216;-80
2021/07/13 02:14:36;;;;;;;13.77;11.20;;;20.00;73.90;;;19.99;58.06;94288.72;5000100;28;20223;-80
2021/07/13 02:17:05;;;;;;;14.18;12.73;;;20.00;73.90;;;19.98;58.81;94298.59;5015672;28;20703;-80
2021/07/13 02:19:32;;;;;;;14.98;12.93;;;20.00;74.20;;;19.96;58.80;94295.38;5018879;28;20292;-80
2021/07/13 02:21:59;;;;;;;15.07;12.45;;;20.00;74.20;;;19.96;58.57;94294.59;5019894;28;20219;-80
2021/07/13 02:24:26;;;;;;;13.88;12.38;;;20.00;74.20;;;19.96;58.34;94294.59;5049311;28;20224;-80
2021/07/13 02:27:03;;;;;;;13.98;12.48;;;19.90;74.30;;;19.94;58.81;94291.41;5000406;28;20220;-80
2021/07/13 02:29:50;;;;;;;12.48;11.27;;;20.00;75.20;;;19.91;58.63;94291.91;5032658;28;20232;-79
2021/07/13 02:32:32;;;;;;;14.52;11.93;;;19.90;75.00;;;19.89;58.74;94297.50;5036231;28;20215;-80
2021/07/13 02:35:04;;;;;;;13.00;11.60;;;19.90;75.20;;;19.89;59.18;94299.38;5014501;28;20690;-79
2021/07/13 02:37:32;;;;;;;16.02;12.10;;;20.00;75.00;;;19.87;58.69;94286.31;5038781;28;20708;-79
2021/07/13 02:39:59;;;;;;;13.32;11.93;;;19.90;75.40;;;19.87;58.77;94290.88;5032829;28;20710;-80
2021/07/13 02:42:27;;;;;;;15.05;12.23;;;19.90;74.60;;;19.83;59.00;94283.44;5032842;28;20228;-79
2021/07/13 02:44:55;;;;;;;13.48;12.18;;;19.90;74.80;;;19.85;59.30;94277.84;5035577;28;20235;-80
2021/07/13 02:47:23;;;;;;;13.43;12.00;;;19.90;75.00;;;19.82;59.05;94279.13;5020106;28;20223;-80
2021/07/13 02:49:52;;;;;;;13.43;11.98;;;19.90;75.00;;;19.81;59.27;94288.19;5035693;28;20223;-79
2021/07/13 02:52:27;;;;;;;13.20;11.65;;;19.80;75.20;;;19.80;59.63;94294.56;5035538;28;20219;-79
2021/07/13 02:55:07;;;;;;;12.82;11.50;;;19.80;75.20;;;19.76;59.06;94290.84;5030079;28;20270;-79
2021/07/13 02:57:34;;;;;;;14.15;12.50;;;19.80;75.70;;;19.76;59.29;94287.38;5013930;28;20310;-80
2021/07/13 03:00:05;;;;;;;15.30;11.80;;;19.80;74.90;;;19.75;59.33;94289.25;5014660;28;20314;-79
2021/07/13 03:02:32;;;;;;;13.70;11.50;;;19.80;75.00;;;19.74;59.58;94292.16;5015687;28;20251;-78
2021/07/13 03:05:00;;;;;;;13.48;11.98;;;19.80;75.00;;;19.73;59.69;94290.56;5052570;28;20273;-79
2021/07/13 03:07:27;;;;;;;13.50;12.13;;;19.80;75.00;;;19.72;59.41;94288.97;5031936;28;20354;-79
2021/07/13 03:09:54;;;;;;;13.20;11.85;;;19.70;75.00;;;19.70;59.25;94283.91;5013703;28;20705;-79
2021/07/13 03:12:22;;;;;;;12.73;11.18;;;19.70;75.00;;;19.69;59.45;94284.97;5002850;28;20246;-79
2021/07/13 03:14:51;;;;;;;14.38;11.82;;;19.70;75.00;;;19.66;59.63;94277.50;5048195;28;20274;-79
2021/07/13 03:17:19;;;;;;;14.45;12.18;;;19.70;75.20;;;19.67;59.42;94279.13;5003119;28;20239;-79
2021/07/13 03:19:47;;;;;;;15.68;12.35;;;19.70;75.10;;;19.66;59.91;94278.31;5035435;28;20223;-78
2021/07/13 03:22:44;;;;;;;17.75;12.68;;;19.70;75.30;;;19.62;59.54;94282.56;5035193;28;20243;-79
2021/07/13 03:25:16;;;;;;;13.77;11.90;;;19.70;75.80;;;19.64;59.85;94274.31;5033150;28;20230;-79
2021/07/13 03:27:44;;;;;;;15.98;11.93;;;19.70;75.80;;;19.65;59.55;94284.72;5018714;28;20214;-79
2021/07/13 03:30:11;;;;;;;12.48;10.45;;;19.70;75.40;;;19.67;59.96;94279.13;5050980;28;20237;-79
2021/07/13 03:32:39;;;;;;;13.77;12.02;;;19.60;75.40;;;19.71;59.56;94277.50;5026193;28;20693;-80
2021/07/13 03:35:08;;;;;;;14.25;12.75;;;19.70;75.70;;;19.77;60.21;94280.97;5028793;28;20251;-80
2021/07/13 03:37:36;;;;;;;14.43;12.20;;;19.70;75.80;;;19.81;60.24;94282.84;5014311;28;20212;-79
2021/07/13 03:40:05;;;;;;;13.82;12.23;;;19.70;76.00;;;19.90;60.39;94283.16;5023108;28;20272;-80
2021/07/13 03:42:33;;;;;;;15.02;12.20;;;19.70;76.20;;;19.97;59.81;94278.38;5028674;28;20242;-79
2021/07/13 03:44:59;;;;;;;14.73;12.50;;;19.90;76.30;;;20.08;60.11;94281.00;5002563;28;20227;-79
2021/07/13 03:47:27;;;;;;;15.75;13.30;;;19.80;76.30;;;20.19;60.09;94274.63;4996123;28;20323;-80
2021/07/13 03:49:56;;;;;;;16.35;12.93;;;19.90;76.50;;;20.31;59.75;94269.81;4996935;28;20232;-80
2021/07/13 03:52:22;;;;;;;15.07;13.48;;;20.00;76.60;;;20.41;59.91;94262.84;4997647;28;20228;-80
2021/07/13 03:54:50;;;;;;;15.60;13.77;;;20.10;76.70;;;20.52;59.90;94266.31;5032343;28;20219;-80
2021/07/13 03:57:16;;;;;;;18.60;14.95;;;20.20;76.70;;;20.62;59.65;94258.28;5040701;28;20227;-80
2021/07/13 03:59:43;;;;;;;17.92;14.48;;;20.30;76.70;;;20.73;59.92;94265.22;5016923;28;20229;-78
2021/07/13 04:02:11;;;;;;;17.08;13.73;;;20.30;76.80;;;20.81;60.25;94253.19;5032901;28;20360;-81
2021/07/13 04:04:40;;;;;;;14.43;12.60;;;20.40;76.80;;;20.89;59.80;94255.28;5017356;28;20223;-80
2021/07/13 04:07:07;;;;;;;15.52;13.68;;;20.50;76.80;;;20.98;60.01;94252.06;5030185;28;20232;-80
2021/07/13 04:09:33;;;;;;;16.10;13.85;;;20.60;77.70;;;21.05;59.90;94252.56;5004405;28;20737;-80
2021/07/13 04:12:00;;;;;;;15.30;13.73;;;20.60;76.80;;;21.14;59.61;94250.13;4996540;28;20682;-80
2021/07/13 04:14:27;;;;;;;16.60;14.43;;;20.70;76.70;;;21.17;59.88;94247.69;4996969;28;20641;-80
2021/07/13 04:16:54;;;;;;;15.70;13.93;;;20.80;77.50;;;21.25;59.60;94251.66;5012392;28;20211;-81
2021/07/13 04:19:20;;;;;;;15.55;13.88;;;20.90;76.80;;;21.30;59.77;94243.66;5031737;28;20737;-79
2021/07/13 04:21:47;;;;;;;16.80;14.73;;;20.90;76.80;;;21.35;59.96;94243.59;5016142;28;20307;-81
2021/07/13 04:24:15;;;;;;;17.88;13.90;;;21.00;76.80;;;21.40;60.00;94240.91;5016201;28;20230;-81
2021/07/13 04:26:41;;;;;;;17.00;15.20;;;21.10;76.80;;;21.47;60.03;94242.47;5029553;28;20188;-81
2021/07/13 04:29:08;;;;;;;18.48;14.77;;;21.10;76.80;;;21.49;59.71;94243.00;5048380;28;20238;-80
2021/07/13 04:31:35;;;;;;;17.23;14.65;;;21.10;76.80;;;21.49;59.79;94230.44;5033359;28;20226;-81
2021/07/13 04:34:08;;;;;;;16.75;14.50;;;21.20;76.80;;;21.57;59.86;94234.44;5034313;28;20298;-80
2021/07/13 04:36:36;;;;;;;17.20;15.45;;;21.30;76.90;;;21.62;59.84;94230.91;5035364;28;20215;-81
2021/07/13 04:39:05;;;;;;;17.30;15.50;;;21.30;76.90;;;21.65;59.92;94225.03;5033898;28;20281;-80
2021/07/13 04:41:32;;;;;;;18.30;15.02;;;21.30;76.90;;;21.66;60.31;94219.41;5034198;28;20293;-81
2021/07/13 04:43:59;;;;;;;17.83;15.80;;;21.40;76.90;;;21.73;60.32;94230.56;5033760;28;20224;-80
2021/07/13 04:46:27;;;;;;;17.45;15.65;;;21.40;76.90;;;21.77;60.21;94220.13;5017972;28;20239;-81
2021/07/13 04:48:55;;;;;;;18.63;16.33;;;21.60;77.80;;;21.82;60.04;94230.75;5001579;28;20286;-81
2021/07/13 04:51:23;;;;;;;18.92;16.48;;;21.50;76.90;;;21.86;60.20;94226.47;5033463;28;20219;-81
2021/07/13 04:53:51;;;;;;;17.00;15.20;;;21.50;76.90;;;21.88;59.92;94234.97;4996701;28;20693;-80
2021/07/13 04:56:18;;;;;;;20.35;15.38;;;21.60;76.90;;;21.92;59.84;94229.88;5033945;28;20598;-81
2021/07/13 04:58:45;;;;;;;20.38;16.10;;;21.60;76.90;;;21.92;60.11;94227.19;5050110;28;20234;-81
2021/07/13 05:01:11;;;;;;;17.67;15.77;;;21.60;76.80;;;21.94;60.07;94233.06;5031514;28;20310;-81
2021/07/13 05:03:38;;;;;;;20.38;17.67;;;21.70;76.90;;;21.96;59.69;94238.94;5034228;28;20208;-80
2021/07/13 05:06:06;;;;;;;17.10;15.30;;;21.70;76.90;;;21.98;60.21;94242.09;5017484;28;20235;-81
2021/07/13 05:08:32;;;;;;;22.23;17.63;;;21.70;76.80;;;22.01;60.13;94241.56;5017394;28;20237;-81
2021/07/13 05:10:59;;;;;;;19.88;17.77;;;21.70;77.00;;;22.06;60.08;94251.41;5016443;28;20648;-81
2021/07/13 05:13:25;;;;;;;25.95;18.08;;;21.70;77.00;;;22.09;60.10;94242.03;5017153;28;20621;-80
2021/07/13 05:15:52;;;;;;;19.65;17.67;;;21.80;77.00;;;22.11;60.54;94235.31;5034062;28;20262;-81
2021/07/13 05:18:19;;;;;;;21.23;18.92;;;21.80;77.00;;;22.13;60.11;94233.19;5030078;28;20682;-81
2021/07/13 05:20:50;;;;;;;20.08;17.65;;;21.90;77.10;;;22.15;60.16;94238.22;5008521;28;20219;-79
2021/07/13 05:23:17;;;;;;;20.30;17.55;;;21.90;77.10;;;22.17;59.92;94236.88;5014781;28;20243;-80
2021/07/13 05:25:44;;;;;;;22.13;18.30;;;21.90;77.00;;;22.22;59.85;94239.47;4981413;28;20228;-79
2021/07/13 05:28:11;;;;;;;22.20;18.80;;;21.90;77.10;;;22.23;60.12;94233.06;4982364;28;20669;-79
2021/07/13 05:30:40;;;;;;;21.15;18.50;;;21.90;77.00;;;22.27;60.44;94235.19;5026726;28;20223;-81
2021/07/13 05:33:10;;;;;;;22.17;17.75;;;21.90;77.20;;;22.30;60.24;94234.59;5000725;28;20314;-80
2021/07/13 05:35:37;;;;;;;21.60;18.55;;;22.00;77.20;;;22.31;60.16;94223.63;5033535;28;20248;-81
2021/07/13 05:38:04;;;;;;;21.92;18.92;;;22.00;77.10;;;22.33;60.33;94221.47;5035770;28;20216;-81
2021/07/13 05:40:32;;;;;;;22.63;18.40;;;22.00;77.10;;;22.35;60.24;94219.34;5031879;28;20279;-81
2021/07/13 05:42:58;;;;;;;21.13;18.42;;;22.10;77.10;;;22.39;60.19;94230.28;4984921;28;20218;-80
2021/07/13 05:45:26;;;;;;;25.55;19.20;;;22.10;77.20;;;22.43;60.77;94228.63;5016941;28;20223;-81
2021/07/13 05:47:53;;;;;;;23.52;18.63;;;22.10;77.30;;;22.47;60.34;94227.00;5021772;28;20253;-80
2021/07/13 05:50:20;;;;;;;23.67;18.15;;;22.20;77.30;;;22.50;60.13;94231.75;5019485;28;20233;-80
2021/07/13 05:52:46;;;;;;;25.58;19.55;;;22.20;77.40;;;22.55;60.51;94231.69;5036927;28;20643;-80
2021/07/13 05:55:13;;;;;;;21.88;19.27;;;22.20;77.30;;;22.61;60.46;94235.13;5036989;28;20636;-80
2021/07/13 05:57:40;;;;;;;24.65;19.00;;;22.20;77.50;;;22.64;59.98;94233.75;5036388;28;20217;-81
2021/07/13 06:00:10;;;;;;;24.50;20.83;;;22.30;77.50;;;22.69;60.29;94233.69;5035657;28;20240;-80
2021/07/13 06:02:40;;;;;;;21.75;19.15;;;22.40;77.50;;;22.72;60.28;94230.47;5053823;28;20267;-81
2021/07/13 06:05:07;;;;;;;24.95;20.50;;;22.40;77.40;;;22.76;60.91;94231.47;5031614;28;20257;-81
2021/07/13 06:07:48;;;;;;;22.67;20.05;;;22.40;77.40;;;22.75;60.88;94237.09;5002485;28;20232;-81
2021/07/13 06:10:19;;;;;;;23.15;19.38;;;22.50;77.50;;;22.77;60.87;94237.63;5034524;28;20210;-81
2021/07/13 06:12:47;;;;;;;24.13;19.17;;;22.50;77.60;;;22.78;60.68;94234.66;5035628;28;20694;-81
2021/07/13 06:15:14;;;;;;;25.35;19.77;;;22.50;77.30;;;22.78;60.44;94225.84;5049104;28;20234;-81
2021/07/13 06:17:42;;;;;;;24.95;20.17;;;22.50;77.30;;;22.79;60.76;94224.75;4992844;28;20249;-81
2021/07/13 06:20:10;;;;;;;25.02;19.95;;;22.50;77.30;;;22.78;60.66;94225.84;5000542;28;20241;-81
2021/07/13 06:22:37;;;;;;;22.73;19.08;;;22.50;77.30;;;22.78;60.75;94225.84;5036292;28;20222;-82
2021/07/13 06:25:06;;;;;;;25.02;20.75;;;22.50;77.30;;;22.80;60.03;94231.69;5019912;28;20833;-82
2021/07/13 06:27:32;;;;;;;25.35;20.45;;;22.50;77.40;;;22.82;60.71;94230.31;5037042;28;20302;-82
2021/07/13 06:29:59;;;;;;;24.05;20.35;;;22.50;77.40;;;22.84;60.69;94225.50;5036255;28;20629;-82
2021/07/13 06:32:25;;;;;;;27.83;20.90;;;22.50;77.40;;;22.85;60.38;94218.25;5032207;28;20228;-82
2021/07/13 06:34:52;;;;;;;27.77;21.40;;;22.60;77.50;;;22.88;60.92;94228.41;5016386;28;20644;-81
2021/07/13 06:37:19;;;;;;;23.17;20.65;;;22.60;77.50;;;22.91;60.51;94222.50;5014920;28;20197;-82
2021/07/13 06:39:46;;;;;;;24.45;20.05;;;22.60;77.50;;;22.93;60.67;94206.16;5032685;28;20251;-81
2021/07/13 06:42:12;;;;;;;24.35;20.50;;;22.60;77.60;;;22.99;60.60;94218.38;5036006;28;20222;-81
2021/07/13 06:44:39;;;;;;;22.55;19.88;;;22.70;77.60;;;23.00;60.83;94211.94;5015790;28;20220;-82
2021/07/13 06:47:05;;;;;;;23.40;19.92;;;22.70;77.60;;;23.08;60.47;94215.84;5031920;28;20365;-81
2021/07/13 06:49:33;;;;;;;22.67;20.25;;;22.70;77.70;;;23.12;60.41;94206.16;5015242;28;20254;-82
2021/07/13 06:51:59;;;;;;;23.52;20.85;;;22.70;77.60;;;23.17;60.96;94217.63;5016716;28;20211;-81
2021/07/13 06:54:28;;;;;;;22.67;20.25;;;22.80;77.70;;;23.21;60.48;94204.47;5032591;28;20231;-81
2021/07/13 06:56:55;;;;;;;23.63;19.88;;;22.80;77.70;;;23.26;60.84;94204.38;5029614;28;20604;-82
2021/07/13 06:59:22;;;;;;;25.15;20.77;;;22.80;77.70;;;23.32;60.65;94197.88;5033378;28;20231;-81
2021/07/13 07:01:48;;;;;;;22.17;19.65;;;22.90;77.90;;;23.40;60.56;94200.97;5014894;28;20653;-82
2021/07/13 07:04:16;;;;;;;22.33;19.92;;;22.90;77.80;;;23.45;60.35;94195.56;5032406;28;20300;-81
2021/07/13 07:06:43;;;;;;;20.63;18.02;;;23.00;77.80;;;23.51;60.42;94191.72;5044141;28;20215;-81
2021/07/13 07:09:10;;;;;;;22.80;20.30;;;23.00;77.80;;;23.56;60.42;94191.66;5045498;28;20266;-82
2021/07/13 07:11:37;;;;;;;22.88;20.40;;;23.10;77.90;;;23.61;60.38;94188.88;5030209;28;20593;-81
2021/07/13 07:14:04;;;;;;;22.65;20.05;;;23.10;78.00;;;23.69;60.47;94179.38;5031486;28;20229;-81
2021/07/13 07:16:31;;;;;;;24.08;20.98;;;23.20;77.80;;;23.73;60.80;94180.41;5005403;28;20577;-80
2021/07/13 07:18:58;;;;;;;22.75;19.92;;;23.30;77.90;;;23.78;60.60;94174.97;5021583;28;20791;-81
2021/07/13 07:21:24;;;;;;;26.50;20.35;;;23.30;77.80;;;23.84;60.23;94181.03;5033701;28;20239;-81
2021/07/13 07:23:51;;;;;;;21.73;19.48;;;23.30;77.80;;;23.89;60.37;94175.59;5016081;28;20258;-80
2021/07/13 07:26:18;;;;;;;21.55;19.25;;;23.40;77.90;;;23.97;60.73;94174.94;5035231;28;20500;-81
2021/07/13 07:28:44;;;;;;;26.00;20.58;;;23.50;77.90;;;24.07;60.24;94176.66;5016199;28;20224;-82
2021/07/13 07:31:11;;;;;;;22.00;19.77;;;23.60;77.90;;;24.16;60.08;94171.41;5007547;28;20220;-81
2021/07/13 07:33:38;;;;;;;21.15;18.98;;;23.60;77.90;;;24.27;60.39;94164.75;5016984;28;20217;-81
2021/07/13 07:36:05;;;;;;;21.60;19.33;;;23.70;77.90;;;24.42;59.80;94165.56;5014355;28;20232;-81
2021/07/13 07:38:33;;;;;;;21.70;19.23;;;23.80;78.00;;;24.56;59.84;94161.00;5015637;28;20223;-82
2021/07/13 07:40:59;;;;;;;21.83;18.63;;;23.90;78.10;;;24.70;59.88;94160.22;5034308;28;20219;-82
2021/07/13 07:43:26;;;;;;;20.58;18.23;;;24.00;78.10;;;24.86;59.74;94174.88;5016696;28;20233;-81
2021/07/13 07:45:53;;;;;;;21.23;18.75;;;24.10;78.10;;;25.01;59.57;94168.41;5015145;28;20251;-81
2021/07/13 07:48:24;;;;;;;21.63;19.38;;;24.20;77.80;;;25.11;59.70;94159.34;5007671;28;20248;-81
2021/07/13 07:50:52;;;;;;;21.50;19.08;;;24.40;77.70;;;25.20;59.35;94159.41;5032775;28;20562;-82
2021/07/13 07:53:18;;;;;;;20.83;18.27;;;24.50;77.50;;;25.29;59.04;94160.25;5013928;28;20259;-81
2021/07/13 07:55:45;;;;;;;22.85;20.08;;;24.60;77.40;;;25.36;58.91;94157.94;5015325;28;20224;-82
2021/07/13 07:58:11;;;;;;;21.60;19.42;;;24.60;77.20;;;25.49;58.62;94166.31;5040126;28;20215;-80
2021/07/13 08:00:40;;;;;;;20.48;18.38;;;24.80;77.20;;;25.62;58.60;94170.84;5017027;28;20710;-81
2021/07/13 08:03:10;;;;;;;21.05;18.98;;;24.90;77.20;;;25.75;58.52;94171.84;5034300;28;20215;-82
2021/07/13 08:05:37;;;;;;;20.38;18.35;;;25.00;76.90;;;25.86;57.85;94158.97;5033950;28;20620;-82
2021/07/13 08:08:04;;;;;;;19.45;17.58;;;25.10;76.80;;;25.98;58.22;94161.09;5014483;28;20693;-81
2021/07/13 08:10:31;;;;;;;20.38;18.30;;;25.20;76.70;;;26.11;57.77;94154.88;5015173;28;20245;-81
2021/07/13 08:12:57;;;;;;;21.27;19.10;;;25.30;76.60;;;26.25;57.53;94148.59;4998471;28;20221;-82
2021/07/13 08:15:24;;;;;;;21.23;19.23;;;25.40;76.30;;;26.35;57.41;94143.75;5047981;28;20273;-82
2021/07/13 08:17:51;;;;;;;18.88;17.05;;;25.60;76.20;;;26.50;57.49;94152.47;5014246;28;20563;-82
2021/07/13 08:20:18;;;;;;;18.15;16.38;;;25.70;76.10;;;26.64;57.42;94149.69;5025069;28;20229;-81
2021/07/13 08:22:48;;;;;;;18.90;16.90;;;25.80;76.00;;;26.76;56.69;94141.81;5033855;28;20217;-81
2021/07/13 08:25:18;;;;;;;20.17;18.17;;;25.90;75.80;;;26.90;56.71;94151.66;5051286;28;20217;-82
2021/07/13 08:27:46;;;;;;;18.20;16.40;;;26.00;75.30;;;27.00;56.39;94151.34;5034491;28;20226;-83
2021/07/13 08:30:14;;;;;;;18.48;16.67;;;26.20;75.20;;;27.12;56.35;94143.47;5018227;28;20217;-82
2021/07/13 08:32:41;;;;;;;18.33;16.48;;;26.20;75.00;;;27.23;55.67;94146.59;5034202;28;20226;-82
2021/07/13 08:35:09;;;;;;;17.83;16.23;;;26.30;75.00;;;27.36;55.62;94136.81;5033600;28;20233;-82
2021/07/13 08:37:36;;;;;;;18.10;16.25;;;26.50;74.60;;;27.43;55.42;94128.28;5034253;28;20228;-83
2021/07/13 08:40:08;;;;;;;18.02;16.42;;;26.50;74.50;;;27.49;55.16;94132.41;5017757;28;20237;-83
2021/07/13 08:42:40;;;;;;;18.15;16.25;;;26.60;74.10;;;27.55;54.62;94131.13;5049302;28;20227;-83
2021/07/13 08:45:13;;;;;;;17.15;15.55;;;26.70;73.80;;;27.61;54.99;94126.34;5033986;28;20319;-83
2021/07/13 08:47:44;;;;;;;17.65;15.80;;;26.80;73.60;;;27.72;55.01;94118.72;5034330;28;20261;-82
2021/07/13 08:50:14;;;;;;;16.27;14.77;;;26.90;73.90;;;27.89;54.82;94120.59;5034161;28;20261;-82
2021/07/13 08:52:40;;;;;;;16.88;14.90;;;27.00;73.90;;;28.05;54.57;94123.56;5016803;28;20223;-82
2021/07/13 08:55:09;;;;;;;16.40;14.88;;;27.10;73.70;;;28.19;54.45;94121.47;5017322;28;20660;-83
2021/07/13 08:57:41;;;;;;;16.95;15.25;;;27.30;73.30;;;28.32;53.80;94118.88;5034051;28;20216;-82
2021/07/13 09:00:13;;;;;;;16.90;15.20;;;27.40;72.80;;;28.40;54.08;94123.44;5033856;28;20698;-83
2021/07/13 09:03:12;;;;;;;16.38;14.88;;;27.40;72.70;;;28.49;54.07;94132.28;5025190;28;20222;-82
2021/07/13 09:05:44;;;;;;;16.27;14.57;;;27.60;72.80;;;28.58;53.65;94124.94;5034111;28;20669;-82
2021/07/13 09:08:15;;;;;;;16.30;14.70;;;27.60;72.40;;;28.69;53.00;94133.47;5050836;28;20234;-82
2021/07/13 09:11:11;;;;;;;16.35;14.75;;;27.80;72.90;;;28.79;53.28;94118.81;5033062;28;20236;-83
2021/07/13 09:13:54;;;;;;;15.80;14.45;;;27.90;72.20;;;28.85;52.76;94117.50;5034152;28;20217;-82
2021/07/13 09:16:23;;;;;;;14.88;13.48;;;28.00;72.30;;;28.94;52.23;94130.16;5034110;28;20212;-82
2021/07/13 09:18:58;;;;;;;14.25;12.85;;;28.00;71.30;;;29.04;52.47;94124.34;5017049;28;20594;-81
2021/07/13 09:21:33;;;;;;;14.23;12.82;;;28.10;71.50;;;29.20;52.81;94132.69;5018089;28;20221;-82
2021/07/13 09:24:22;;;;;;;17.30;13.40;;;28.20;72.50;;;29.37;51.97;94126.38;5033698;28;20220;-83
2021/07/13 09:26:57;;;;;;;14.38;12.95;;;28.30;71.30;;;29.53;51.73;94124.63;5034750;28;20214;-81
2021/07/13 09:29:38;;;;;;;14.05;12.75;;;28.50;71.30;;;29.65;51.65;94129.28;5030364;28;20245;-83
2021/07/13 09:32:35;;;;;;;13.32;12.02;;;28.60;70.80;;;29.76;51.72;94128.88;5033469;28;20255;-82
2021/07/13 09:35:13;;;;;;;13.65;12.40;;;28.70;71.10;;;29.85;51.39;94124.16;5021075;28;20243;-82
2021/07/13 09:37:48;;;;;;;13.05;11.95;;;28.90;69.80;;;29.95;51.36;94115.66;5024542;28;20221;-82
2021/07/13 09:40:17;;;;;;;13.43;11.95;;;29.00;70.30;;;30.06;50.84;94121.41;5034029;28;20638;-82
2021/07/13 09:42:54;;;;;;;13.95;12.00;;;29.10;69.80;;;30.21;50.77;94117.25;5033130;28;20341;-82
2021/07/13 09:45:31;;;;;;;14.82;13.43;;;29.20;69.90;;;30.33;51.17;94108.38;5032702;28;20232;-82
2021/07/13 09:48:12;;;;;;;14.77;13.13;;;29.30;70.00;;;30.43;49.75;94112.53;5032824;28;20250;-81
2021/07/13 09:50:43;;;;;;;13.00;11.68;;;29.40;69.60;;;30.48;50.05;94115.81;5033319;28;20319;-82
2021/07/13 09:53:17;;;;;;;13.00;11.52;;;29.50;69.30;;;30.53;49.43;94112.13;5032548;28;20244;-82
2021/07/13 09:55:45;;;;;;;12.98;11.68;;;29.60;69.10;;;30.56;50.39;94114.16;5033041;28;20255;-81
2021/07/13 09:58:22;;;;;;;13.73;12.35;;;29.60;69.20;;;30.59;49.60;94101.84;5012897;28;20478;-81
2021/07/13 10:00:56;;;;;;;13.40;12.18;;;29.70;68.40;;;30.58;48.76;94106.50;5013363;28;20235;-82
2021/07/13 10:03:23;;;;;;;12.88;11.57;;;29.80;68.10;;;30.56;49.52;94110.66;5013108;28;20229;-82
2021/07/13 10:05:52;;;;;;;12.50;11.40;;;29.80;68.20;;;30.55;48.97;94109.88;5029805;28;20761;-81
2021/07/13 10:08:21;;;;;;;12.82;11.60;;;29.80;68.10;;;30.60;49.03;94108.84;5010123;28;20727;-83
2021/07/13 10:10:49;;;;;;;13.00;11.70;;;29.80;67.90;;;30.60;49.22;94103.44;5011132;28;20259;-82
2021/07/13 10:13:18;;;;;;;12.82;11.63;;;29.80;67.80;;;30.60;49.19;94098.84;5012227;28;20730;-82
2021/07/13 10:15:48;;;;;;;12.25;11.15;;;29.80;67.80;;;30.65;49.61;94101.31;5013133;28;20241;-82
2021/07/13 10:18:20;;;;;;;11.77;10.40;;;29.80;68.20;;;30.72;49.50;94099.94;5025343;28;20222;-82